createdAt,value
2022-08-28T00:00:03.397Z,18.83
2022-08-28T00:00:13.401Z,18.87
2022-08-28T00:00:23.399Z,18.86
2022-08-28T00:00:34.216Z,18.90
2022-08-28T00:00:43.499Z,18.87
2022-08-28T00:00:53.388Z,18.98
2022-08-28T00:01:03.401Z,18.86
2022-08-28T00:01:13.410Z,18.80
2022-08-28T00:01:23.485Z,18.91
2022-08-28T00:01:33.387Z,18.83
2022-08-28T00:01:43.393Z,18.87
2022-08-28T00:01:53.395Z,18.80
2022-08-28T00:02:03.422Z,18.94
2022-08-28T00:02:16.214Z,18.87
2022-08-28T00:02:23.431Z,18.91
2022-08-28T00:02:33.526Z,19.06
2022-08-28T00:02:44.257Z,18.97
2022-08-28T00:02:53.506Z,18.92
2022-08-28T00:03:03.425Z,18.83
2022-08-28T00:03:13.435Z,18.95
2022-08-28T00:03:23.384Z,19.02
2022-08-28T00:03:33.384Z,18.79
2022-08-28T00:03:43.401Z,18.82
2022-08-28T00:03:54.185Z,18.87
2022-08-28T00:04:03.380Z,18.90
2022-08-28T00:04:13.406Z,18.86
2022-08-28T00:04:23.413Z,18.83
2022-08-28T00:04:33.464Z,18.83
2022-08-28T00:04:43.568Z,18.86
2022-08-28T00:04:53.479Z,18.90
2022-08-28T00:05:03.401Z,18.86
2022-08-28T00:05:13.368Z,18.91
2022-08-28T00:05:23.374Z,18.82
2022-08-28T00:05:33.370Z,18.92
2022-08-28T00:05:43.373Z,19.05
2022-08-28T00:05:53.367Z,18.94
2022-08-28T00:06:03.377Z,18.91
2022-08-28T00:06:13.376Z,18.94
2022-08-28T00:06:23.369Z,18.82
2022-08-28T00:06:33.393Z,18.90
2022-08-28T00:06:43.377Z,18.91
2022-08-28T00:06:54.192Z,18.99
2022-08-28T00:07:03.368Z,18.82
2022-08-28T00:07:13.372Z,18.90
2022-08-28T00:07:23.379Z,18.95
2022-08-28T00:07:33.431Z,18.87
2022-08-28T00:07:47.794Z,18.87
2022-08-28T00:07:53.369Z,18.98
2022-08-28T00:08:03.366Z,18.86
2022-08-28T00:08:13.552Z,18.99
2022-08-28T00:08:24.193Z,18.90
2022-08-28T00:08:33.363Z,18.91
2022-08-28T00:08:43.384Z,18.99
2022-08-28T00:08:54.193Z,18.99
2022-08-28T00:09:03.455Z,18.98
2022-08-28T00:09:13.359Z,18.97
2022-08-28T00:09:23.363Z,18.95
2022-08-28T00:09:33.351Z,18.95
2022-08-28T00:09:43.357Z,18.92
2022-08-28T00:09:53.352Z,18.80
2022-08-28T00:10:03.358Z,18.92
2022-08-28T00:10:13.359Z,18.82
2022-08-28T00:10:23.358Z,18.90
2022-08-28T00:10:33.347Z,18.86
2022-08-28T00:10:43.350Z,18.83
2022-08-28T00:10:53.355Z,18.92
2022-08-28T00:11:04.194Z,18.99
2022-08-28T00:11:13.350Z,18.97
2022-08-28T00:11:23.392Z,18.99
2022-08-28T00:11:33.508Z,18.92
2022-08-28T00:11:43.348Z,18.86
2022-08-28T00:11:53.347Z,18.95
2022-08-28T00:12:03.348Z,18.84
2022-08-28T00:12:13.363Z,18.92
2022-08-28T00:12:23.355Z,18.90
2022-08-28T00:12:33.340Z,18.95
2022-08-28T00:12:43.354Z,18.82
2022-08-28T00:12:53.732Z,18.80
2022-08-28T00:13:04.208Z,18.87
2022-08-28T00:13:13.336Z,18.90
2022-08-28T00:13:23.347Z,18.77
2022-08-28T00:13:33.336Z,18.91
2022-08-28T00:13:43.472Z,18.86
2022-08-28T00:13:53.335Z,18.84
2022-08-28T00:14:03.336Z,18.83
2022-08-28T00:14:13.350Z,18.80
2022-08-28T00:14:23.338Z,18.90
2022-08-28T00:14:34.258Z,18.87
2022-08-28T00:14:43.333Z,18.87
2022-08-28T00:14:53.327Z,18.84
2022-08-28T00:15:03.354Z,18.82
2022-08-28T00:15:14.419Z,18.87
2022-08-28T00:15:23.344Z,18.90
2022-08-28T00:15:34.197Z,18.87
2022-08-28T00:15:43.399Z,18.87
2022-08-28T00:15:53.406Z,18.77
2022-08-28T00:16:03.377Z,18.83
2022-08-28T00:16:13.407Z,18.90
2022-08-28T00:16:23.375Z,18.86
2022-08-28T00:16:33.523Z,18.77
2022-08-28T00:16:44.224Z,18.72
2022-08-28T00:16:53.334Z,18.83
2022-08-28T00:17:03.352Z,18.79
2022-08-28T00:17:13.347Z,18.83
2022-08-28T00:17:23.435Z,18.77
2022-08-28T00:17:33.318Z,18.84
2022-08-28T00:17:43.327Z,18.86
2022-08-28T00:17:53.336Z,18.77
2022-08-28T00:18:03.371Z,18.84
2022-08-28T00:18:13.596Z,18.92
2022-08-28T00:18:23.341Z,18.70
2022-08-28T00:18:33.368Z,18.80
2022-08-28T00:18:43.326Z,18.73
2022-08-28T00:18:53.333Z,18.77
2022-08-28T00:19:04.207Z,18.83
2022-08-28T00:19:13.312Z,18.74
2022-08-28T00:19:23.391Z,18.86
2022-08-28T00:19:36.699Z,18.74
2022-08-28T00:19:43.317Z,18.80
2022-08-28T00:19:53.314Z,18.80
2022-08-28T00:20:03.314Z,18.74
2022-08-28T00:20:13.348Z,18.83
2022-08-28T00:20:23.316Z,18.72
2022-08-28T00:20:33.312Z,18.82
2022-08-28T00:20:43.327Z,18.83
2022-08-28T00:20:53.304Z,18.77
2022-08-28T00:21:03.318Z,18.68
2022-08-28T00:21:13.326Z,18.79
2022-08-28T00:21:24.209Z,18.68
2022-08-28T00:21:33.300Z,18.77
2022-08-28T00:21:43.306Z,18.76
2022-08-28T00:21:53.309Z,18.80
2022-08-28T00:22:03.301Z,18.82
2022-08-28T00:22:13.336Z,18.77
2022-08-28T00:22:23.311Z,18.80
2022-08-28T00:22:33.297Z,18.73
2022-08-28T00:22:43.327Z,18.83
2022-08-28T00:22:53.318Z,18.76
2022-08-28T00:23:03.305Z,18.74
2022-08-28T00:23:14.207Z,18.62
2022-08-28T00:23:23.295Z,18.72
2022-08-28T00:23:43.128Z,18.79
2022-08-28T00:23:43.436Z,18.68
2022-08-28T00:23:53.300Z,18.76
2022-08-28T00:24:03.300Z,18.80
2022-08-28T00:24:13.291Z,18.64
2022-08-28T00:24:23.316Z,18.68
2022-08-28T00:24:33.300Z,18.74
2022-08-28T00:24:43.294Z,18.79
2022-08-28T00:24:55.062Z,18.73
2022-08-28T00:25:03.288Z,18.74
2022-08-28T00:25:13.291Z,18.73
2022-08-28T00:25:23.296Z,18.68
2022-08-28T00:25:34.217Z,18.74
2022-08-28T00:25:44.204Z,18.65
2022-08-28T00:25:53.293Z,18.76
2022-08-28T00:26:03.291Z,18.67
2022-08-28T00:26:13.307Z,18.72
2022-08-28T00:26:23.304Z,18.72
2022-08-28T00:26:33.352Z,18.76
2022-08-28T00:26:43.284Z,18.79
2022-08-28T00:26:53.290Z,18.72
2022-08-28T00:27:03.281Z,18.68
2022-08-28T00:27:13.290Z,18.76
2022-08-28T00:27:23.287Z,18.62
2022-08-28T00:27:33.306Z,18.74
2022-08-28T00:27:43.371Z,18.72
2022-08-28T00:27:53.291Z,18.79
2022-08-28T00:28:08.602Z,18.80
2022-08-28T00:28:23.723Z,18.67
2022-08-28T00:28:24.079Z,18.61
2022-08-28T00:28:33.279Z,18.74
2022-08-28T00:28:43.279Z,18.64
2022-08-28T00:28:53.288Z,18.67
2022-08-28T00:29:03.288Z,18.76
2022-08-28T00:29:13.280Z,18.70
2022-08-28T00:29:23.277Z,18.68
2022-08-28T00:29:33.268Z,18.72
2022-08-28T00:29:43.298Z,18.67
2022-08-28T00:29:53.268Z,18.72
2022-08-28T00:30:03.273Z,18.77
2022-08-28T00:30:13.307Z,18.72
2022-08-28T00:30:23.270Z,18.62
2022-08-28T00:30:33.271Z,18.62
2022-08-28T00:30:43.282Z,18.64
2022-08-28T00:30:53.307Z,18.67
2022-08-28T00:31:03.295Z,18.65
2022-08-28T00:31:13.299Z,18.67
2022-08-28T00:31:23.301Z,18.77
2022-08-28T00:31:36.279Z,18.76
2022-08-28T00:31:43.344Z,18.64
2022-08-28T00:31:53.325Z,18.73
2022-08-28T00:32:03.266Z,18.68
2022-08-28T00:32:13.260Z,18.73
2022-08-28T00:32:23.258Z,18.70
2022-08-28T00:32:34.206Z,18.73
2022-08-28T00:32:43.267Z,18.65
2022-08-28T00:32:54.206Z,18.61
2022-08-28T00:33:03.257Z,18.80
2022-08-28T00:33:13.325Z,18.62
2022-08-28T00:33:23.277Z,18.74
2022-08-28T00:33:33.293Z,18.62
2022-08-28T00:33:43.258Z,18.77
2022-08-28T00:33:54.274Z,18.73
2022-08-28T00:34:03.253Z,18.67
2022-08-28T00:34:13.250Z,18.55
2022-08-28T00:34:25.504Z,18.57
2022-08-28T00:34:33.785Z,18.73
2022-08-28T00:34:43.261Z,18.64
2022-08-28T00:34:53.254Z,18.61
2022-08-28T00:35:03.249Z,18.58
2022-08-28T00:35:13.257Z,18.68
2022-08-28T00:35:23.263Z,18.59
2022-08-28T00:35:33.244Z,18.58
2022-08-28T00:35:43.247Z,18.61
2022-08-28T00:35:53.252Z,18.59
2022-08-28T00:36:03.317Z,18.54
2022-08-28T00:36:13.246Z,18.55
2022-08-28T00:36:23.255Z,18.77
2022-08-28T00:36:33.261Z,18.55
2022-08-28T00:36:44.215Z,18.67
2022-08-28T00:36:53.240Z,18.70
2022-08-28T00:37:03.257Z,18.64
2022-08-28T00:37:13.236Z,18.72
2022-08-28T00:37:24.612Z,18.70
2022-08-28T00:37:33.237Z,18.65
2022-08-28T00:37:43.239Z,18.65
2022-08-28T00:37:53.243Z,18.61
2022-08-28T00:38:04.238Z,18.70
2022-08-28T00:38:13.509Z,18.67
2022-08-28T00:38:23.245Z,18.65
2022-08-28T00:38:33.239Z,18.59
2022-08-28T00:38:43.278Z,18.65
2022-08-28T00:38:53.227Z,18.62
2022-08-28T00:39:03.263Z,18.67
2022-08-28T00:39:13.233Z,18.65
2022-08-28T00:39:23.229Z,18.74
2022-08-28T00:39:33.233Z,18.73
2022-08-28T00:39:43.228Z,18.65
2022-08-28T00:39:53.268Z,18.70
2022-08-28T00:40:03.280Z,18.65
2022-08-28T00:40:13.467Z,18.62
2022-08-28T00:40:28.885Z,18.64
2022-08-28T00:40:33.944Z,18.62
2022-08-28T00:40:43.293Z,18.57
2022-08-28T00:40:53.228Z,18.61
2022-08-28T00:41:03.912Z,18.61
2022-08-28T00:41:13.230Z,18.58
2022-08-28T00:41:24.946Z,18.58
2022-08-28T00:41:33.221Z,18.68
2022-08-28T00:41:44.250Z,18.57
2022-08-28T00:41:56.677Z,18.57
2022-08-28T00:42:03.212Z,18.72
2022-08-28T00:42:14.241Z,18.67
2022-08-28T00:42:23.212Z,18.47
2022-08-28T00:42:33.241Z,18.64
2022-08-28T00:42:43.215Z,18.68
2022-08-28T00:42:53.213Z,18.61
2022-08-28T00:43:03.216Z,18.67
2022-08-28T00:43:13.233Z,18.62
2022-08-28T00:43:23.217Z,18.65
2022-08-28T00:43:33.214Z,18.59
2022-08-28T00:43:43.218Z,18.61
2022-08-28T00:43:53.259Z,18.64
2022-08-28T00:44:03.212Z,18.55
2022-08-28T00:44:13.228Z,18.64
2022-08-28T00:44:23.398Z,18.59
2022-08-28T00:44:33.213Z,18.47
2022-08-28T00:44:43.218Z,18.54
2022-08-28T00:44:53.233Z,18.57
2022-08-28T00:45:03.201Z,18.59
2022-08-28T00:45:13.211Z,18.59
2022-08-28T00:45:23.211Z,18.61
2022-08-28T00:45:38.756Z,18.54
2022-08-28T00:45:43.199Z,18.61
2022-08-28T00:45:53.200Z,18.54
2022-08-28T00:46:03.233Z,18.50
2022-08-28T00:46:13.252Z,18.61
2022-08-28T00:46:23.782Z,18.70
2022-08-28T00:46:33.302Z,18.55
2022-08-28T00:46:43.262Z,18.58
2022-08-28T00:46:53.358Z,18.50
2022-08-28T00:47:03.191Z,18.46
2022-08-28T00:47:13.208Z,18.47
2022-08-28T00:47:23.208Z,18.52
2022-08-28T00:47:33.205Z,18.62
2022-08-28T00:47:43.205Z,18.55
2022-08-28T00:47:53.198Z,18.62
2022-08-28T00:48:03.189Z,18.55
2022-08-28T00:48:13.507Z,18.49
2022-08-28T00:48:23.190Z,18.52
2022-08-28T00:48:33.301Z,18.64
2022-08-28T00:48:43.186Z,18.59
2022-08-28T00:48:53.198Z,18.49
2022-08-28T00:49:03.216Z,18.49
2022-08-28T00:49:13.247Z,18.52
2022-08-28T00:49:23.185Z,18.55
2022-08-28T00:49:33.194Z,18.57
2022-08-28T00:49:43.186Z,18.52
2022-08-28T00:49:53.714Z,18.54
2022-08-28T00:50:03.186Z,18.61
2022-08-28T00:50:13.187Z,18.44
2022-08-28T00:50:23.186Z,18.52
2022-08-28T00:50:33.721Z,18.47
2022-08-28T00:50:43.285Z,18.57
2022-08-28T00:50:53.182Z,18.55
2022-08-28T00:51:03.184Z,18.37
2022-08-28T00:51:13.177Z,18.50
2022-08-28T00:51:23.177Z,18.44
2022-08-28T00:51:33.180Z,18.57
2022-08-28T00:51:43.185Z,18.47
2022-08-28T00:51:53.182Z,18.50
2022-08-28T00:52:03.177Z,18.49
2022-08-28T00:52:13.187Z,18.58
2022-08-28T00:52:23.726Z,18.49
2022-08-28T00:52:33.175Z,18.36
2022-08-28T00:52:43.234Z,18.44
2022-08-28T00:52:53.177Z,18.55
2022-08-28T00:53:03.170Z,18.39
2022-08-28T00:53:13.175Z,18.43
2022-08-28T00:53:23.540Z,18.50
2022-08-28T00:53:33.320Z,18.50
2022-08-28T00:53:43.168Z,18.46
2022-08-28T00:53:56.660Z,18.50
2022-08-28T00:54:07.516Z,18.46
2022-08-28T00:54:13.221Z,18.43
2022-08-28T00:54:23.166Z,18.44
2022-08-28T00:54:33.192Z,18.47
2022-08-28T00:54:45.390Z,18.52
2022-08-28T00:54:59.591Z,18.42
2022-08-28T00:55:03.165Z,18.52
2022-08-28T00:55:13.199Z,18.52
2022-08-28T00:55:23.196Z,18.54
2022-08-28T00:55:33.179Z,18.42
2022-08-28T00:55:43.166Z,18.52
2022-08-28T00:55:53.192Z,18.44
2022-08-28T00:56:04.111Z,18.57
2022-08-28T00:56:13.512Z,18.54
2022-08-28T00:56:23.152Z,18.62
2022-08-28T00:56:33.184Z,18.59
2022-08-28T00:56:43.159Z,18.49
2022-08-28T00:56:53.210Z,18.47
2022-08-28T00:57:03.156Z,18.44
2022-08-28T00:57:13.163Z,18.44
2022-08-28T00:57:23.149Z,18.46
2022-08-28T00:57:33.173Z,18.46
2022-08-28T00:57:43.152Z,18.59
2022-08-28T00:57:53.152Z,18.46
2022-08-28T00:58:03.175Z,18.46
2022-08-28T00:58:13.435Z,18.44
2022-08-28T00:58:23.187Z,18.47
2022-08-28T00:58:33.724Z,18.43
2022-08-28T00:58:43.157Z,18.50
2022-08-28T00:58:53.185Z,18.47
2022-08-28T00:59:03.160Z,18.47
2022-08-28T00:59:13.147Z,18.36
2022-08-28T00:59:23.225Z,18.39
2022-08-28T00:59:33.197Z,18.49
2022-08-28T00:59:43.146Z,18.47
2022-08-28T00:59:53.160Z,18.47
2022-08-28T01:00:03.138Z,18.42
2022-08-28T01:00:13.213Z,18.43
2022-08-28T01:00:23.137Z,18.33
2022-08-28T01:00:33.154Z,18.54
2022-08-28T01:00:43.138Z,18.46
2022-08-28T01:00:53.141Z,18.50
2022-08-28T01:01:03.203Z,18.50
2022-08-28T01:01:13.211Z,18.43
2022-08-28T01:01:23.220Z,18.37
2022-08-28T01:01:33.254Z,18.50
2022-08-28T01:01:43.241Z,18.44
2022-08-28T01:01:53.193Z,18.43
2022-08-28T01:02:03.208Z,18.50
2022-08-28T01:02:13.134Z,18.39
2022-08-28T01:02:23.171Z,18.39
2022-08-28T01:02:33.170Z,18.46
2022-08-28T01:02:43.182Z,18.39
2022-08-28T01:02:53.201Z,18.54
2022-08-28T01:03:03.765Z,18.39
2022-08-28T01:03:13.223Z,18.34
2022-08-28T01:03:25.189Z,18.44
2022-08-28T01:03:33.125Z,18.47
2022-08-28T01:03:43.225Z,18.47
2022-08-28T01:03:53.128Z,18.42
2022-08-28T01:04:03.122Z,18.33
2022-08-28T01:04:13.131Z,18.36
2022-08-28T01:04:23.132Z,18.25
2022-08-28T01:04:33.172Z,18.42
2022-08-28T01:04:43.134Z,18.33
2022-08-28T01:04:53.171Z,18.33
2022-08-28T01:05:03.133Z,18.46
2022-08-28T01:05:13.186Z,18.50
2022-08-28T01:05:23.746Z,18.40
2022-08-28T01:05:33.133Z,18.42
2022-08-28T01:05:43.136Z,18.39
2022-08-28T01:05:53.127Z,18.40
2022-08-28T01:06:03.113Z,18.42
2022-08-28T01:06:13.127Z,18.44
2022-08-28T01:06:23.112Z,18.43
2022-08-28T01:06:33.217Z,18.42
2022-08-28T01:06:43.118Z,18.33
2022-08-28T01:06:53.116Z,18.40
2022-08-28T01:07:03.112Z,18.44
2022-08-28T01:07:13.751Z,18.43
2022-08-28T01:07:23.122Z,18.43
2022-08-28T01:07:33.114Z,18.34
2022-08-28T01:07:43.105Z,18.34
2022-08-28T01:07:53.140Z,18.44
2022-08-28T01:08:03.118Z,18.42
2022-08-28T01:08:13.401Z,18.33
2022-08-28T01:08:23.124Z,18.40
2022-08-28T01:08:33.112Z,18.49
2022-08-28T01:08:43.112Z,18.39
2022-08-28T01:08:53.122Z,18.43
2022-08-28T01:09:03.770Z,18.34
2022-08-28T01:09:13.164Z,18.36
2022-08-28T01:09:23.185Z,18.40
2022-08-28T01:09:33.106Z,18.44
2022-08-28T01:09:43.155Z,18.33
2022-08-28T01:09:53.099Z,18.36
2022-08-28T01:10:03.101Z,18.47
2022-08-28T01:10:13.100Z,18.39
2022-08-28T01:10:23.111Z,18.42
2022-08-28T01:10:33.101Z,18.46
2022-08-28T01:10:43.110Z,18.28
2022-08-28T01:10:53.104Z,18.42
2022-08-28T01:11:03.095Z,18.44
2022-08-28T01:11:13.097Z,18.40
2022-08-28T01:11:23.110Z,18.37
2022-08-28T01:11:33.102Z,18.40
2022-08-28T01:11:43.101Z,18.42
2022-08-28T01:11:53.109Z,18.27
2022-08-28T01:12:03.091Z,18.36
2022-08-28T01:12:13.089Z,18.29
2022-08-28T01:12:23.093Z,18.34
2022-08-28T01:12:33.119Z,18.37
2022-08-28T01:12:43.090Z,18.33
2022-08-28T01:12:53.089Z,18.34
2022-08-28T01:13:03.085Z,18.34
2022-08-28T01:13:13.091Z,18.24
2022-08-28T01:13:23.084Z,18.37
2022-08-28T01:13:33.160Z,18.33
2022-08-28T01:13:43.094Z,18.44
2022-08-28T01:13:53.738Z,18.37
2022-08-28T01:14:03.311Z,18.37
2022-08-28T01:14:13.744Z,18.39
2022-08-28T01:14:23.077Z,18.31
2022-08-28T01:14:33.080Z,18.27
2022-08-28T01:14:43.084Z,18.36
2022-08-28T01:14:53.128Z,18.33
2022-08-28T01:15:03.087Z,18.40
2022-08-28T01:15:13.958Z,18.36
2022-08-28T01:15:23.073Z,18.37
2022-08-28T01:15:33.805Z,18.43
2022-08-28T01:15:43.119Z,18.31
2022-08-28T01:15:53.126Z,18.42
2022-08-28T01:16:03.183Z,18.42
2022-08-28T01:16:13.157Z,18.37
2022-08-28T01:16:23.174Z,18.37
2022-08-28T01:16:34.452Z,18.39
2022-08-28T01:16:43.068Z,18.43
2022-08-28T01:16:53.085Z,18.46
2022-08-28T01:17:03.070Z,18.34
2022-08-28T01:17:13.071Z,18.34
2022-08-28T01:17:23.064Z,18.40
2022-08-28T01:17:33.074Z,18.33
2022-08-28T01:17:43.274Z,18.37
2022-08-28T01:17:53.074Z,18.39
2022-08-28T01:18:07.859Z,18.43
2022-08-28T01:18:13.505Z,18.40
2022-08-28T01:18:23.062Z,18.40
2022-08-28T01:18:33.143Z,18.34
2022-08-28T01:18:43.098Z,18.28
2022-08-28T01:18:53.736Z,18.31
2022-08-28T01:19:03.067Z,18.33
2022-08-28T01:19:13.074Z,18.36
2022-08-28T01:19:23.061Z,18.44
2022-08-28T01:19:33.092Z,18.25
2022-08-28T01:19:43.072Z,18.42
2022-08-28T01:19:53.067Z,18.43
2022-08-28T01:20:03.100Z,18.27
2022-08-28T01:20:13.077Z,18.37
2022-08-28T01:20:23.061Z,18.34
2022-08-28T01:20:33.065Z,18.31
2022-08-28T01:20:43.060Z,18.21
2022-08-28T01:20:53.064Z,18.34
2022-08-28T01:21:03.147Z,18.34
2022-08-28T01:21:20.144Z,18.40
2022-08-28T01:21:23.050Z,18.50
2022-08-28T01:21:33.070Z,18.36
2022-08-28T01:21:43.048Z,18.29
2022-08-28T01:21:53.087Z,18.39
2022-08-28T01:22:03.057Z,18.36
2022-08-28T01:22:13.069Z,18.36
2022-08-28T01:22:23.053Z,18.33
2022-08-28T01:22:33.052Z,18.31
2022-08-28T01:22:43.075Z,18.28
2022-08-28T01:22:53.046Z,18.42
2022-08-28T01:23:03.068Z,18.29
2022-08-28T01:23:13.066Z,18.42
2022-08-28T01:23:23.055Z,18.22
2022-08-28T01:23:33.049Z,18.25
2022-08-28T01:23:43.050Z,18.36
2022-08-28T01:23:53.753Z,18.39
2022-08-28T01:24:03.054Z,18.36
2022-08-28T01:24:13.039Z,18.31
2022-08-28T01:24:23.740Z,18.33
2022-08-28T01:24:33.043Z,18.34
2022-08-28T01:24:43.039Z,18.27
2022-08-28T01:24:53.041Z,18.31
2022-08-28T01:25:03.035Z,18.28
2022-08-28T01:25:13.097Z,18.27
2022-08-28T01:25:23.036Z,18.36
2022-08-28T01:25:33.732Z,18.33
2022-08-28T01:25:43.041Z,18.31
2022-08-28T01:25:53.055Z,18.27
2022-08-28T01:26:03.175Z,18.39
2022-08-28T01:26:13.033Z,18.25
2022-08-28T01:26:23.036Z,18.27
2022-08-28T01:26:33.031Z,18.47
2022-08-28T01:26:43.033Z,18.36
2022-08-28T01:26:53.041Z,18.36
2022-08-28T01:27:03.026Z,18.29
2022-08-28T01:27:13.023Z,18.29
2022-08-28T01:27:23.545Z,18.27
2022-08-28T01:27:33.025Z,18.25
2022-08-28T01:27:43.740Z,18.31
2022-08-28T01:27:53.742Z,18.29
2022-08-28T01:28:03.831Z,18.28
2022-08-28T01:28:13.298Z,18.37
2022-08-28T01:28:23.024Z,18.33
2022-08-28T01:28:33.019Z,18.27
2022-08-28T01:28:43.025Z,18.27
2022-08-28T01:28:53.034Z,18.21
2022-08-28T01:29:03.021Z,18.34
2022-08-28T01:29:13.035Z,18.28
2022-08-28T01:29:23.107Z,18.29
2022-08-28T01:29:33.025Z,18.27
2022-08-28T01:29:45.508Z,18.33
2022-08-28T01:29:53.017Z,18.29
2022-08-28T01:30:03.023Z,18.25
2022-08-28T01:30:13.099Z,18.29
2022-08-28T01:30:23.068Z,18.28
2022-08-28T01:30:33.022Z,18.34
2022-08-28T01:30:43.025Z,18.33
2022-08-28T01:30:53.097Z,18.29
2022-08-28T01:31:03.110Z,18.34
2022-08-28T01:31:13.097Z,18.37
2022-08-28T01:31:23.054Z,18.31
2022-08-28T01:31:33.064Z,18.34
2022-08-28T01:31:43.012Z,18.25
2022-08-28T01:31:53.041Z,18.43
2022-08-28T01:32:03.021Z,18.22
2022-08-28T01:32:13.024Z,18.31
2022-08-28T01:32:23.006Z,18.34
2022-08-28T01:32:33.023Z,18.36
2022-08-28T01:32:43.013Z,18.15
2022-08-28T01:32:53.001Z,18.33
2022-08-28T01:33:03.009Z,18.24
2022-08-28T01:33:12.996Z,18.31
2022-08-28T01:33:27.901Z,18.40
2022-08-28T01:33:33.009Z,18.22
2022-08-28T01:33:43.035Z,18.33
2022-08-28T01:33:52.998Z,18.27
2022-08-28T01:34:02.998Z,18.33
2022-08-28T01:34:13.060Z,18.34
2022-08-28T01:34:23.126Z,18.24
2022-08-28T01:34:33.007Z,18.34
2022-08-28T01:34:42.999Z,18.24
2022-08-28T01:34:52.993Z,18.27
2022-08-28T01:35:03.000Z,18.24
2022-08-28T01:35:13.032Z,18.21
2022-08-28T01:35:23.008Z,18.33
2022-08-28T01:35:33.115Z,18.31
2022-08-28T01:35:43.006Z,18.25
2022-08-28T01:35:52.991Z,18.22
2022-08-28T01:36:02.988Z,18.27
2022-08-28T01:36:13.070Z,18.25
2022-08-28T01:36:23.012Z,18.27
2022-08-28T01:36:32.985Z,18.22
2022-08-28T01:36:42.985Z,18.18
2022-08-28T01:36:53.105Z,18.09
2022-08-28T01:37:03.395Z,18.13
2022-08-28T01:37:13.006Z,18.19
2022-08-28T01:37:22.988Z,18.19
2022-08-28T01:37:32.994Z,18.15
2022-08-28T01:37:43.752Z,18.18
2022-08-28T01:37:52.992Z,18.19
2022-08-28T01:38:02.984Z,18.17
2022-08-28T01:38:13.118Z,18.19
2022-08-28T01:38:26.789Z,18.18
2022-08-28T01:38:33.008Z,18.19
2022-08-28T01:38:42.980Z,18.22
2022-08-28T01:38:52.975Z,18.28
2022-08-28T01:39:02.976Z,18.21
2022-08-28T01:39:12.985Z,18.22
2022-08-28T01:39:22.973Z,18.21
2022-08-28T01:39:32.980Z,18.24
2022-08-28T01:39:42.976Z,18.22
2022-08-28T01:39:53.026Z,18.15
2022-08-28T01:40:03.072Z,18.18
2022-08-28T01:40:13.089Z,18.29
2022-08-28T01:40:23.185Z,18.29
2022-08-28T01:40:33.035Z,18.31
2022-08-28T01:40:43.004Z,18.21
2022-08-28T01:40:52.965Z,18.28
2022-08-28T01:41:03.758Z,18.19
2022-08-28T01:41:12.968Z,18.29
2022-08-28T01:41:22.969Z,18.31
2022-08-28T01:41:32.966Z,18.17
2022-08-28T01:41:42.979Z,18.17
2022-08-28T01:41:52.974Z,18.25
2022-08-28T01:42:02.968Z,18.21
2022-08-28T01:42:13.008Z,18.34
2022-08-28T01:42:22.976Z,18.34
2022-08-28T01:42:33.027Z,18.42
2022-08-28T01:42:43.036Z,18.27
2022-08-28T01:42:52.964Z,18.29
2022-08-28T01:43:02.963Z,18.37
2022-08-28T01:43:12.956Z,18.22
2022-08-28T01:43:22.958Z,18.21
2022-08-28T01:43:32.964Z,18.25
2022-08-28T01:43:42.979Z,18.33
2022-08-28T01:43:52.976Z,18.24
2022-08-28T01:44:03.023Z,18.13
2022-08-28T01:44:12.953Z,18.19
2022-08-28T01:44:22.962Z,18.33
2022-08-28T01:44:32.962Z,18.28
2022-08-28T01:44:43.006Z,18.25
2022-08-28T01:44:52.952Z,18.24
2022-08-28T01:45:02.949Z,18.27
2022-08-28T01:45:12.951Z,18.33
2022-08-28T01:45:22.961Z,18.33
2022-08-28T01:45:32.947Z,18.40
2022-08-28T01:45:42.953Z,18.21
2022-08-28T01:45:53.089Z,18.25
2022-08-28T01:46:02.968Z,18.29
2022-08-28T01:46:13.048Z,18.27
2022-08-28T01:46:23.070Z,18.36
2022-08-28T01:46:33.049Z,18.40
2022-08-28T01:46:43.034Z,18.39
2022-08-28T01:46:53.030Z,18.29
2022-08-28T01:47:02.946Z,18.27
2022-08-28T01:47:13.068Z,18.27
2022-08-28T01:47:22.997Z,18.22
2022-08-28T01:47:33.748Z,18.21
2022-08-28T01:47:42.948Z,18.36
2022-08-28T01:47:52.938Z,18.22
2022-08-28T01:48:02.945Z,18.19
2022-08-28T01:48:13.156Z,18.24
2022-08-28T01:48:22.937Z,18.28
2022-08-28T01:48:32.944Z,18.29
2022-08-28T01:48:43.087Z,18.17
2022-08-28T01:48:53.758Z,18.25
2022-08-28T01:49:02.961Z,18.29
2022-08-28T01:49:12.940Z,18.28
2022-08-28T01:49:22.962Z,18.07
2022-08-28T01:49:32.939Z,18.18
2022-08-28T01:49:42.940Z,18.19
2022-08-28T01:49:52.971Z,18.21
2022-08-28T01:50:02.947Z,18.34
2022-08-28T01:50:12.933Z,18.18
2022-08-28T01:50:22.931Z,18.17
2022-08-28T01:50:32.934Z,18.28
2022-08-28T01:50:42.943Z,18.10
2022-08-28T01:50:52.950Z,18.18
2022-08-28T01:51:03.776Z,18.09
2022-08-28T01:51:12.924Z,18.12
2022-08-28T01:51:24.761Z,18.15
2022-08-28T01:51:35.048Z,18.12
2022-08-28T01:51:42.927Z,18.09
2022-08-28T01:51:54.736Z,18.19
2022-08-28T01:52:03.384Z,18.21
2022-08-28T01:52:12.927Z,18.15
2022-08-28T01:52:26.387Z,18.17
2022-08-28T01:52:32.921Z,18.12
2022-08-28T01:52:42.966Z,18.13
2022-08-28T01:52:53.781Z,18.07
2022-08-28T01:53:03.762Z,18.12
2022-08-28T01:53:12.915Z,18.39
2022-08-28T01:53:24.924Z,18.10
2022-08-28T01:53:33.474Z,18.12
2022-08-28T01:53:45.072Z,18.07
2022-08-28T01:53:52.915Z,18.10
2022-08-28T01:54:02.993Z,18.17
2022-08-28T01:54:12.916Z,18.10
2022-08-28T01:54:22.918Z,18.04
2022-08-28T01:54:32.911Z,18.09
2022-08-28T01:54:42.930Z,18.13
2022-08-28T01:54:52.929Z,18.12
2022-08-28T01:55:02.909Z,18.04
2022-08-28T01:55:12.991Z,18.09
2022-08-28T01:55:22.935Z,18.13
2022-08-28T01:55:32.915Z,18.12
2022-08-28T01:55:42.913Z,18.04
2022-08-28T01:55:52.962Z,18.12
2022-08-28T01:56:03.021Z,18.07
2022-08-28T01:56:12.959Z,18.15
2022-08-28T01:56:22.908Z,18.21
2022-08-28T01:56:32.897Z,18.04
2022-08-28T01:56:42.929Z,18.15
2022-08-28T01:56:52.897Z,18.02
2022-08-28T01:57:02.900Z,18.04
2022-08-28T01:57:13.782Z,18.10
2022-08-28T01:57:22.898Z,18.17
2022-08-28T01:57:32.912Z,18.06
2022-08-28T01:57:42.897Z,18.04
2022-08-28T01:57:52.897Z,18.09
2022-08-28T01:58:02.908Z,18.12
2022-08-28T01:58:13.058Z,18.13
2022-08-28T01:58:22.907Z,18.09
2022-08-28T01:58:37.545Z,18.02
2022-08-28T01:58:42.914Z,17.92
2022-08-28T01:58:52.890Z,18.09
2022-08-28T01:59:02.896Z,18.04
2022-08-28T01:59:12.903Z,18.19
2022-08-28T01:59:22.935Z,18.07
2022-08-28T01:59:32.904Z,18.17
2022-08-28T01:59:42.889Z,18.07
2022-08-28T01:59:52.885Z,18.13
2022-08-28T02:00:02.891Z,18.00
2022-08-28T02:00:12.904Z,18.07
2022-08-28T02:00:22.896Z,18.06
2022-08-28T02:00:32.880Z,17.94
2022-08-28T02:00:42.885Z,18.03
2022-08-28T02:00:52.941Z,18.15
2022-08-28T02:01:02.886Z,18.12
2022-08-28T02:01:12.986Z,18.13
2022-08-28T02:01:23.374Z,18.07
2022-08-28T02:01:32.940Z,18.04
2022-08-28T02:01:42.968Z,18.15
2022-08-28T02:01:52.942Z,18.06
2022-08-28T02:02:02.945Z,18.03
2022-08-28T02:02:12.884Z,18.02
2022-08-28T02:02:22.917Z,18.09
2022-08-28T02:02:32.889Z,17.95
2022-08-28T02:02:42.879Z,17.97
2022-08-28T02:02:52.878Z,18.00
2022-08-28T02:03:02.891Z,17.94
2022-08-28T02:03:12.876Z,17.94
2022-08-28T02:03:22.891Z,18.00
2022-08-28T02:03:32.961Z,17.92
2022-08-28T02:03:42.916Z,18.00
2022-08-28T02:03:53.062Z,17.97
2022-08-28T02:04:02.931Z,17.88
2022-08-28T02:04:13.043Z,17.88
2022-08-28T02:04:23.078Z,17.91
2022-08-28T02:04:32.926Z,17.97
2022-08-28T02:04:46.231Z,17.97
2022-08-28T02:04:52.959Z,17.92
2022-08-28T02:05:02.872Z,18.00
2022-08-28T02:05:12.877Z,17.95
2022-08-28T02:05:23.817Z,17.88
2022-08-28T02:05:33.775Z,17.92
2022-08-28T02:05:43.763Z,17.85
2022-08-28T02:05:52.873Z,17.95
2022-08-28T02:06:02.870Z,17.99
2022-08-28T02:06:12.866Z,17.92
2022-08-28T02:06:22.860Z,17.99
2022-08-28T02:06:32.915Z,17.97
2022-08-28T02:06:43.770Z,17.89
2022-08-28T02:06:52.858Z,17.88
2022-08-28T02:07:02.870Z,17.84
2022-08-28T02:07:12.902Z,17.92
2022-08-28T02:07:22.862Z,18.02
2022-08-28T02:07:32.874Z,17.94
2022-08-28T02:07:42.911Z,17.92
2022-08-28T02:07:52.866Z,17.94
2022-08-28T02:08:02.871Z,18.00
2022-08-28T02:08:12.950Z,17.94
2022-08-28T02:08:22.855Z,17.92
2022-08-28T02:08:32.879Z,17.95
2022-08-28T02:08:42.899Z,17.88